Portada
METAR-TAF:

METAR-TAF

Aeroports :

Manchester, Nova Hampshire, Estats Units d'Amèrica

latitud: 42-55-45N, longitud: 071-26-09W, altitud: 71 m

Observació

L'informe es va fer fa 33 minuts, a les 17:53 UTC
Vent calma
Temperatura 28°C
Humitat 51%
Pressió 1021 hPa
Visibilitat: 16.1 km
Escasses núvols a una alçada de 4000 ft
Escasses núvols a una alçada de 25000 ft

METAR: KMHT 261753Z 00000KT 10SM FEW040 FEW250 28/17 A3015 RMK AO2 SLP219 T02780167 10283 20156 58015

Hora: 14:26 (18:26 UTC)

Pronòstic

L'informe es va fer fa 1 hora i 6 minuts, a les 17:20 UTC
Pronòstic vàlid del 26 a les 18 UTC al 27 a les 18 UTC
Vent 3 kt del Sud
Visibilitat: 10 km
Escasses núvols a una alçada de 3000 ft
Escasses núvols a una alçada de 25000 ft

TAF: KMHT 261720Z 2618/2718 17003KT P6SM FEW030 FEW250

Observacions i pronòstics meteorològics de més de 4000 aeroports (METAR i TAF).

Les estacions disponibles són els punts grocs i vermells al mapa.

Posi el ratolí al punt desitjat per veure el nom de l'estació.

Feu clic per veure les observacions i els pronòstics meteorològics.

Per canviar el mapa: feu clic els botons verds amb una creu de color negre per apropar; al botó verd amb un guió per allunyar la imatge; o en les fletxes verdes per a mapes adjacents.


METAR-TAF: